sensor_id;sensor_type;location;lat;lon;timestamp;pressure;altitude;pressure_sealevel;temperature;humidity
8061;BME280;4073;42.626;25.386;2022-11-15T00:00:40;97865.47;;;9.74;100.00
8061;BME280;4073;42.626;25.386;2022-11-15T00:03:05;97858.00;;;9.76;100.00
8061;BME280;4073;42.626;25.386;2022-11-15T00:05:34;97865.78;;;9.78;100.00
8061;BME280;4073;42.626;25.386;2022-11-15T00:08:01;97854.53;;;9.76;100.00
8061;BME280;4073;42.626;25.386;2022-11-15T00:10:26;97851.88;;;9.76;100.00
8061;BME280;4073;42.626;25.386;2022-11-15T00:12:51;97857.50;;;9.79;100.00
8061;BME280;4073;42.626;25.386;2022-11-15T00:15:17;97853.19;;;9.73;100.00
8061;BME280;4073;42.626;25.386;2022-11-15T00:17:42;97856.97;;;9.77;100.00
8061;BME280;4073;42.626;25.386;2022-11-15T00:20:08;97856.66;;;9.74;100.00
8061;BME280;4073;42.626;25.386;2022-11-15T00:22:34;97854.22;;;9.72;100.00
8061;BME280;4073;42.626;25.386;2022-11-15T00:24:59;97849.44;;;9.74;100.00
8061;BME280;4073;42.626;25.386;2022-11-15T00:27:25;97845.00;;;9.85;100.00
8061;BME280;4073;42.626;25.386;2022-11-15T00:29:51;97845.78;;;9.80;100.00
8061;BME280;4073;42.626;25.386;2022-11-15T00:32:16;97843.16;;;9.85;100.00
8061;BME280;4073;42.626;25.386;2022-11-15T00:34:42;97843.25;;;9.90;100.00
8061;BME280;4073;42.626;25.386;2022-11-15T00:37:07;97846.75;;;9.96;100.00
8061;BME280;4073;42.626;25.386;2022-11-15T00:39:33;97839.03;;;9.99;100.00
8061;BME280;4073;42.626;25.386;2022-11-15T00:41:58;97832.34;;;9.97;100.00
8061;BME280;4073;42.626;25.386;2022-11-15T00:44:23;97832.28;;;9.92;100.00
8061;BME280;4073;42.626;25.386;2022-11-15T00:46:49;97823.66;;;9.85;100.00
8061;BME280;4073;42.626;25.386;2022-11-15T00:49:14;97823.97;;;9.88;100.00
8061;BME280;4073;42.626;25.386;2022-11-15T00:51:40;97821.53;;;9.87;100.00
8061;BME280;4073;42.626;25.386;2022-11-15T00:54:05;97819.69;;;9.87;100.00
8061;BME280;4073;42.626;25.386;2022-11-15T00:56:30;97822.38;;;9.87;100.00
8061;BME280;4073;42.626;25.386;2022-11-15T00:58:56;97813.84;;;9.90;100.00
8061;BME280;4073;42.626;25.386;2022-11-15T01:01:21;97816.22;;;9.87;100.00
8061;BME280;4073;42.626;25.386;2022-11-15T01:03:47;97817.63;;;9.94;100.00
8061;BME280;4073;42.626;25.386;2022-11-15T01:06:12;97809.63;;;9.94;100.00
8061;BME280;4073;42.626;25.386;2022-11-15T01:08:39;97808.19;;;9.87;100.00
8061;BME280;4073;42.626;25.386;2022-11-15T01:11:08;97814.72;;;9.96;100.00
8061;BME280;4073;42.626;25.386;2022-11-15T01:13:35;97804.56;;;9.98;100.00
8061;BME280;4073;42.626;25.386;2022-11-15T01:16:12;97807.56;;;10.01;100.00
8061;BME280;4073;42.626;25.386;2022-11-15T01:18:38;97801.34;;;9.96;100.00
8061;BME280;4073;42.626;25.386;2022-11-15T01:21:05;97808.31;;;9.97;100.00
8061;BME280;4073;42.626;25.386;2022-11-15T01:23:31;97800.03;;;9.98;100.00
8061;BME280;4073;42.626;25.386;2022-11-15T01:26:00;97797.63;;;9.97;100.00
8061;BME280;4073;42.626;25.386;2022-11-15T01:28:30;97800.84;;;9.99;100.00
8061;BME280;4073;42.626;25.386;2022-11-15T01:30:58;97802.22;;;10.01;100.00
8061;BME280;4073;42.626;25.386;2022-11-15T01:33:23;97794.38;;;9.95;100.00
8061;BME280;4073;42.626;25.386;2022-11-15T01:35:49;97803.78;;;9.97;100.00
8061;BME280;4073;42.626;25.386;2022-11-15T01:38:14;97797.63;;;9.97;100.00
8061;BME280;4073;42.626;25.386;2022-11-15T01:40:39;97800.78;;;9.94;100.00
8061;BME280;4073;42.626;25.386;2022-11-15T01:43:20;97794.88;;;9.92;100.00
8061;BME280;4073;42.626;25.386;2022-11-15T01:45:50;97785.56;;;9.94;100.00
8061;BME280;4073;42.626;25.386;2022-11-15T01:48:17;97789.25;;;9.88;100.00
8061;BME280;4073;42.626;25.386;2022-11-15T01:50:42;97791.66;;;9.90;100.00
8061;BME280;4073;42.626;25.386;2022-11-15T01:53:08;97790.34;;;9.92;100.00
8061;BME280;4073;42.626;25.386;2022-11-15T01:55:35;97784.88;;;10.04;100.00
8061;BME280;4073;42.626;25.386;2022-11-15T01:58:03;97788.78;;;9.96;100.00
8061;BME280;4073;42.626;25.386;2022-11-15T02:00:29;97788.59;;;10.03;100.00
8061;BME280;4073;42.626;25.386;2022-11-15T02:02:55;97785.09;;;10.02;100.00
8061;BME280;4073;42.626;25.386;2022-11-15T02:05:21;97787.75;;;9.97;100.00
8061;BME280;4073;42.626;25.386;2022-11-15T02:07:47;97772.22;;;9.94;100.00
8061;BME280;4073;42.626;25.386;2022-11-15T02:10:18;97790.97;;;9.99;100.00
8061;BME280;4073;42.626;25.386;2022-11-15T02:12:45;97778.94;;;10.02;100.00
8061;BME280;4073;42.626;25.386;2022-11-15T02:15:11;97781.13;;;10.05;100.00
8061;BME280;4073;42.626;25.386;2022-11-15T02:20:39;97777.72;;;10.09;100.00
8061;BME280;4073;42.626;25.386;2022-11-15T02:28:49;97772.13;;;10.11;100.00
8061;BME280;4073;42.626;25.386;2022-11-15T02:34:05;97774.03;;;10.15;100.00
8061;BME280;4073;42.626;25.386;2022-11-15T02:39:15;97778.06;;;10.18;100.00
8061;BME280;4073;42.626;25.386;2022-11-15T02:42:04;97780.50;;;10.19;100.00
8061;BME280;4073;42.626;25.386;2022-11-15T02:44:53;97780.47;;;10.14;100.00
8061;BME280;4073;42.626;25.386;2022-11-15T02:47:21;97768.69;;;10.15;100.00
8061;BME280;4073;42.626;25.386;2022-11-15T02:49:53;97771.91;;;10.17;100.00
8061;BME280;4073;42.626;25.386;2022-11-15T02:52:22;97771.97;;;10.22;100.00
8061;BME280;4073;42.626;25.386;2022-11-15T02:54:55;97758.00;;;10.15;100.00
8061;BME280;4073;42.626;25.386;2022-11-15T02:57:45;97763.91;;;10.17;100.00
8061;BME280;4073;42.626;25.386;2022-11-15T03:00:18;97762.25;;;10.11;100.00
8061;BME280;4073;42.626;25.386;2022-11-15T03:13:57;97757.69;;;10.07;100.00
8061;BME280;4073;42.626;25.386;2022-11-15T03:19:30;97765.44;;;10.08;100.00
8061;BME280;4073;42.626;25.386;2022-11-15T03:22:00;97760.25;;;10.02;100.00
8061;BME280;4073;42.626;25.386;2022-11-15T03:24:28;97763.75;;;10.02;100.00
8061;BME280;4073;42.626;25.386;2022-11-15T03:26:57;97768.25;;;10.02;100.00
8061;BME280;4073;42.626;25.386;2022-11-15T03:29:27;97761.88;;;10.03;100.00
8061;BME280;4073;42.626;25.386;2022-11-15T03:32:00;97756.97;;;9.95;100.00
8061;BME280;4073;42.626;25.386;2022-11-15T03:34:39;97754.06;;;9.96;100.00
8061;BME280;4073;42.626;25.386;2022-11-15T03:37:07;97746.81;;;9.92;100.00
8061;BME280;4073;42.626;25.386;2022-11-15T03:39:33;97750.53;;;9.91;100.00
8061;BME280;4073;42.626;25.386;2022-11-15T03:42:20;97752.22;;;9.97;100.00
8061;BME280;4073;42.626;25.386;2022-11-15T03:45:03;97751.34;;;9.91;100.00
8061;BME280;4073;42.626;25.386;2022-11-15T03:47:41;97748.94;;;9.90;100.00
8061;BME280;4073;42.626;25.386;2022-11-15T03:50:13;97745.44;;;9.89;100.00
8061;BME280;4073;42.626;25.386;2022-11-15T03:52:40;97738.75;;;9.87;100.00
8061;BME280;4073;42.626;25.386;2022-11-15T03:55:10;97737.19;;;9.91;100.00
8061;BME280;4073;42.626;25.386;2022-11-15T03:57:36;97738.50;;;9.88;100.00
8061;BME280;4073;42.626;25.386;2022-11-15T04:00:04;97729.19;;;9.91;100.00
8061;BME280;4073;42.626;25.386;2022-11-15T04:02:29;97720.88;;;9.87;100.00
8061;BME280;4073;42.626;25.386;2022-11-15T04:04:55;97724.56;;;9.81;100.00
8061;BME280;4073;42.626;25.386;2022-11-15T04:07:20;97720.56;;;9.84;100.00
8061;BME280;4073;42.626;25.386;2022-11-15T04:09:46;97723.31;;;9.89;100.00
8061;BME280;4073;42.626;25.386;2022-11-15T04:12:39;97731.84;;;9.91;100.00
8061;BME280;4073;42.626;25.386;2022-11-15T04:15:26;97728.09;;;9.92;100.00
8061;BME280;4073;42.626;25.386;2022-11-15T04:17:53;97726.00;;;9.94;100.00
8061;BME280;4073;42.626;25.386;2022-11-15T04:20:24;97718.50;;;9.91;100.00
8061;BME280;4073;42.626;25.386;2022-11-15T04:23:20;97717.44;;;9.92;100.00
8061;BME280;4073;42.626;25.386;2022-11-15T04:26:09;97719.59;;;9.95;100.00
8061;BME280;4073;42.626;25.386;2022-11-15T04:28:36;97717.44;;;9.92;100.00
8061;BME280;4073;42.626;25.386;2022-11-15T04:31:24;97722.81;;;9.97;100.00
8061;BME280;4073;42.626;25.386;2022-11-15T04:33:50;97727.34;;;9.96;100.00
8061;BME280;4073;42.626;25.386;2022-11-15T04:36:15;97728.38;;;9.90;100.00
8061;BME280;4073;42.626;25.386;2022-11-15T04:39:00;97724.84;;;9.85;100.00
8061;BME280;4073;42.626;25.386;2022-11-15T04:41:25;97722.97;;;9.85;100.00
8061;BME280;4073;42.626;25.386;2022-11-15T04:43:50;97716.56;;;9.86;100.00
8061;BME280;4073;42.626;25.386;2022-11-15T04:46:16;97714.41;;;9.83;100.00
8061;BME280;4073;42.626;25.386;2022-11-15T04:48:42;97720.81;;;9.82;100.00
8061;BME280;4073;42.626;25.386;2022-11-15T04:51:07;97723.75;;;9.81;100.00
8061;BME280;4073;42.626;25.386;2022-11-15T04:53:33;97713.78;;;9.71;100.00
8061;BME280;4073;42.626;25.386;2022-11-15T04:55:58;97711.16;;;9.76;100.00
8061;BME280;4073;42.626;25.386;2022-11-15T04:58:24;97709.78;;;9.74;100.00
8061;BME280;4073;42.626;25.386;2022-11-15T05:00:49;97711.41;;;9.75;100.00
8061;BME280;4073;42.626;25.386;2022-11-15T05:03:15;97710.34;;;9.76;100.00
8061;BME280;4073;42.626;25.386;2022-11-15T05:05:59;97708.22;;;9.78;100.00
8061;BME280;4073;42.626;25.386;2022-11-15T05:08:24;97709.06;;;9.83;100.00
8061;BME280;4073;42.626;25.386;2022-11-15T05:10:50;97704.03;;;9.87;100.00
8061;BME280;4073;42.626;25.386;2022-11-15T05:13:16;97707.53;;;9.87;100.00
8061;BME280;4073;42.626;25.386;2022-11-15T05:15:41;97702.22;;;9.92;100.00
8061;BME280;4073;42.626;25.386;2022-11-15T05:18:06;97709.69;;;9.90;100.00
8061;BME280;4073;42.626;25.386;2022-11-15T05:20:32;97706.25;;;9.95;100.00
8061;BME280;4073;42.626;25.386;2022-11-15T05:22:57;97699.59;;;9.97;100.00
8061;BME280;4073;42.626;25.386;2022-11-15T05:25:23;97703.31;;;9.96;100.00
8061;BME280;4073;42.626;25.386;2022-11-15T05:27:49;97702.56;;;10.01;100.00
8061;BME280;4073;42.626;25.386;2022-11-15T05:30:15;97703.06;;;9.98;100.00
8061;BME280;4073;42.626;25.386;2022-11-15T05:32:41;97706.28;;;10.00;100.00
8061;BME280;4073;42.626;25.386;2022-11-15T05:35:08;97714.84;;;10.02;100.00
8061;BME280;4073;42.626;25.386;2022-11-15T05:37:37;97711.38;;;10.01;100.00
8061;BME280;4073;42.626;25.386;2022-11-15T05:40:03;97712.72;;;9.99;100.00
8061;BME280;4073;42.626;25.386;2022-11-15T05:42:29;97723.38;;;9.99;100.00
8061;BME280;4073;42.626;25.386;2022-11-15T05:44:56;97718.31;;;9.97;100.00
8061;BME280;4073;42.626;25.386;2022-11-15T05:47:25;97723.38;;;9.99;100.00
8061;BME280;4073;42.626;25.386;2022-11-15T05:49:52;97715.09;;;10.00;100.00
8061;BME280;4073;42.626;25.386;2022-11-15T05:52:23;97721.81;;;10.03;100.00
8061;BME280;4073;42.626;25.386;2022-11-15T05:54:51;97721.56;;;10.04;100.00
8061;BME280;4073;42.626;25.386;2022-11-15T05:57:17;97736.75;;;9.99;100.00
8061;BME280;4073;42.626;25.386;2022-11-15T05:59:43;97720.19;;;10.02;100.00
8061;BME280;4073;42.626;25.386;2022-11-15T06:02:09;97738.38;;;10.05;100.00
8061;BME280;4073;42.626;25.386;2022-11-15T06:04:35;97726.69;;;10.06;100.00
8061;BME280;4073;42.626;25.386;2022-11-15T06:07:01;97737.38;;;10.06;100.00
8061;BME280;4073;42.626;25.386;2022-11-15T06:09:26;97740.31;;;10.09;100.00
8061;BME280;4073;42.626;25.386;2022-11-15T06:11:52;97733.66;;;10.12;100.00
8061;BME280;4073;42.626;25.386;2022-11-15T06:14:17;97736.38;;;10.17;100.00
8061;BME280;4073;42.626;25.386;2022-11-15T06:16:43;97731.28;;;10.15;100.00
8061;BME280;4073;42.626;25.386;2022-11-15T06:19:09;97725.63;;;10.12;100.00
8061;BME280;4073;42.626;25.386;2022-11-15T06:21:34;97740.41;;;10.19;100.00
8061;BME280;4073;42.626;25.386;2022-11-15T06:24:00;97741.75;;;10.22;100.00
8061;BME280;4073;42.626;25.386;2022-11-15T06:26:25;97730.78;;;10.18;100.00
8061;BME280;4073;42.626;25.386;2022-11-15T06:28:51;97745.81;;;10.24;100.00
8061;BME280;4073;42.626;25.386;2022-11-15T06:31:16;97742.88;;;10.26;100.00
8061;BME280;4073;42.626;25.386;2022-11-15T06:33:41;97747.44;;;10.30;100.00
8061;BME280;4073;42.626;25.386;2022-11-15T06:36:09;97740.22;;;10.31;100.00
8061;BME280;4073;42.626;25.386;2022-11-15T06:38:36;97750.69;;;10.32;100.00
8061;BME280;4073;42.626;25.386;2022-11-15T06:41:02;97744.00;;;10.35;100.00
8061;BME280;4073;42.626;25.386;2022-11-15T06:43:29;97735.72;;;10.36;100.00
8061;BME280;4073;42.626;25.386;2022-11-15T06:45:54;97744.31;;;10.38;100.00
8061;BME280;4073;42.626;25.386;2022-11-15T06:48:20;97738.72;;;10.40;100.00
8061;BME280;4073;42.626;25.386;2022-11-15T06:50:52;97746.50;;;10.46;100.00
8061;BME280;4073;42.626;25.386;2022-11-15T06:53:18;97740.91;;;10.48;100.00
8061;BME280;4073;42.626;25.386;2022-11-15T06:55:43;97740.34;;;10.46;100.00
8061;BME280;4073;42.626;25.386;2022-11-15T06:58:09;97727.22;;;10.44;100.00
8061;BME280;4073;42.626;25.386;2022-11-15T07:00:34;97744.16;;;10.55;100.00
8061;BME280;4073;42.626;25.386;2022-11-15T07:03:00;97735.88;;;10.57;100.00
8061;BME280;4073;42.626;25.386;2022-11-15T07:05:26;97723.34;;;10.62;100.00
8061;BME280;4073;42.626;25.386;2022-11-15T07:07:53;97738.06;;;10.65;100.00
8061;BME280;4073;42.626;25.386;2022-11-15T07:10:19;97728.47;;;10.69;100.00
8061;BME280;4073;42.626;25.386;2022-11-15T07:12:48;97728.75;;;10.72;100.00
8061;BME280;4073;42.626;25.386;2022-11-15T07:15:15;97730.91;;;10.75;100.00
8061;BME280;4073;42.626;25.386;2022-11-15T07:17:41;97725.31;;;10.77;100.00
8061;BME280;4073;42.626;25.386;2022-11-15T07:20:06;97731.75;;;10.81;100.00
8061;BME280;4073;42.626;25.386;2022-11-15T07:22:32;97716.00;;;10.84;100.00
8061;BME280;4073;42.626;25.386;2022-11-15T07:24:57;97716.25;;;10.88;100.00
8061;BME280;4073;42.626;25.386;2022-11-15T07:27:23;97714.38;;;10.83;100.00
8061;BME280;4073;42.626;25.386;2022-11-15T07:29:48;97727.25;;;10.91;100.00
8061;BME280;4073;42.626;25.386;2022-11-15T07:32:14;97729.94;;;10.91;100.00
8061;BME280;4073;42.626;25.386;2022-11-15T07:34:39;97720.22;;;10.80;100.00
8061;BME280;4073;42.626;25.386;2022-11-15T07:37:05;97722.94;;;10.85;100.00
8061;BME280;4073;42.626;25.386;2022-11-15T07:39:30;97717.88;;;10.89;100.00
8061;BME280;4073;42.626;25.386;2022-11-15T07:41:55;97718.09;;;10.82;100.00
8061;BME280;4073;42.626;25.386;2022-11-15T07:44:41;97720.28;;;10.85;100.00
8061;BME280;4073;42.626;25.386;2022-11-15T07:47:06;97730.44;;;10.88;100.00
8061;BME280;4073;42.626;25.386;2022-11-15T07:49:32;97719.19;;;10.86;100.00
8061;BME280;4073;42.626;25.386;2022-11-15T07:51:57;97722.19;;;10.95;100.00
8061;BME280;4073;42.626;25.386;2022-11-15T07:54:22;97724.91;;;11.00;100.00
8061;BME280;4073;42.626;25.386;2022-11-15T07:56:48;97716.63;;;11.06;100.00
8061;BME280;4073;42.626;25.386;2022-11-15T07:59:13;97707.00;;;11.10;100.00
8061;BME280;4073;42.626;25.386;2022-11-15T08:01:40;97718.25;;;11.17;100.00
8061;BME280;4073;42.626;25.386;2022-11-15T08:04:05;97724.19;;;11.24;100.00
8061;BME280;4073;42.626;25.386;2022-11-15T08:06:31;97723.13;;;11.30;100.00
8061;BME280;4073;42.626;25.386;2022-11-15T08:08:56;97714.56;;;11.28;100.00
8061;BME280;4073;42.626;25.386;2022-11-15T08:11:21;97728.53;;;11.40;100.00
8061;BME280;4073;42.626;25.386;2022-11-15T08:13:47;97729.34;;;11.46;100.00
8061;BME280;4073;42.626;25.386;2022-11-15T08:16:12;97726.41;;;11.47;100.00
8061;BME280;4073;42.626;25.386;2022-11-15T08:18:38;97725.06;;;11.50;100.00
8061;BME280;4073;42.626;25.386;2022-11-15T08:21:04;97729.91;;;11.53;100.00
8061;BME280;4073;42.626;25.386;2022-11-15T08:23:29;97729.38;;;11.56;100.00
8061;BME280;4073;42.626;25.386;2022-11-15T08:26:02;97725.91;;;11.60;100.00
8061;BME280;4073;42.626;25.386;2022-11-15T08:28:29;97720.56;;;11.60;100.00
8061;BME280;4073;42.626;25.386;2022-11-15T08:30:54;97733.94;;;11.60;100.00
8061;BME280;4073;42.626;25.386;2022-11-15T08:33:20;97725.44;;;11.73;100.00
8061;BME280;4073;42.626;25.386;2022-11-15T08:35:45;97723.84;;;11.82;100.00
8061;BME280;4073;42.626;25.386;2022-11-15T08:38:11;97727.06;;;11.89;100.00
8061;BME280;4073;42.626;25.386;2022-11-15T08:40:37;97716.91;;;11.96;100.00
8061;BME280;4073;42.626;25.386;2022-11-15T08:43:03;97706.44;;;12.05;100.00
8061;BME280;4073;42.626;25.386;2022-11-15T08:45:29;97705.34;;;12.11;100.00
8061;BME280;4073;42.626;25.386;2022-11-15T08:47:55;97713.94;;;12.18;100.00
8061;BME280;4073;42.626;25.386;2022-11-15T08:50:21;97705.88;;;12.18;100.00
8061;BME280;4073;42.626;25.386;2022-11-15T08:52:47;97708.59;;;12.13;100.00
8061;BME280;4073;42.626;25.386;2022-11-15T08:55:13;97700.00;;;12.06;100.00
8061;BME280;4073;42.626;25.386;2022-11-15T08:57:39;97701.88;;;12.00;100.00
8061;BME280;4073;42.626;25.386;2022-11-15T09:00:05;97704.56;;;11.95;100.00
8061;BME280;4073;42.626;25.386;2022-11-15T09:02:31;97707.22;;;11.85;100.00
8061;BME280;4073;42.626;25.386;2022-11-15T09:04:56;97701.59;;;11.77;100.00
8061;BME280;4073;42.626;25.386;2022-11-15T09:07:22;97685.72;;;11.60;100.00
8061;BME280;4073;42.626;25.386;2022-11-15T09:09:47;97693.53;;;11.67;100.00
8061;BME280;4073;42.626;25.386;2022-11-15T09:12:13;97686.31;;;11.67;100.00
8061;BME280;4073;42.626;25.386;2022-11-15T09:14:38;97687.09;;;11.63;100.00
8061;BME280;4073;42.626;25.386;2022-11-15T09:17:07;97686.84;;;11.64;100.00
8061;BME280;4073;42.626;25.386;2022-11-15T09:19:33;97675.03;;;11.65;100.00
8061;BME280;4073;42.626;25.386;2022-11-15T09:21:59;97679.88;;;11.68;100.00
8061;BME280;4073;42.626;25.386;2022-11-15T09:24:24;97669.97;;;11.69;100.00
8061;BME280;4073;42.626;25.386;2022-11-15T09:26:51;97672.94;;;11.77;100.00
8061;BME280;4073;42.626;25.386;2022-11-15T09:29:17;97659.56;;;11.82;100.00
8061;BME280;4073;42.626;25.386;2022-11-15T09:31:43;97663.81;;;11.88;100.00
8061;BME280;4073;42.626;25.386;2022-11-15T09:34:08;97641.31;;;11.84;100.00
8061;BME280;4073;42.626;25.386;2022-11-15T09:36:34;97652.03;;;11.94;100.00
8061;BME280;4073;42.626;25.386;2022-11-15T09:39:00;97648.81;;;11.97;100.00
8061;BME280;4073;42.626;25.386;2022-11-15T09:45:01;97647.50;;;11.95;100.00
8061;BME280;4073;42.626;25.386;2022-11-15T09:50:12;97635.69;;;11.86;100.00
8061;BME280;4073;42.626;25.386;2022-11-15T09:52:42;97631.41;;;11.95;100.00
8061;BME280;4073;42.626;25.386;2022-11-15T09:55:10;97635.97;;;11.94;100.00
8061;BME280;4073;42.626;25.386;2022-11-15T09:57:45;97630.06;;;11.97;100.00
8061;BME280;4073;42.626;25.386;2022-11-15T10:00:21;97623.63;;;11.98;100.00
8061;BME280;4073;42.626;25.386;2022-11-15T10:03:13;97619.06;;;12.04;100.00
8061;BME280;4073;42.626;25.386;2022-11-15T10:05:46;97614.50;;;12.14;100.00
8061;BME280;4073;42.626;25.386;2022-11-15T10:10:58;97605.09;;;12.27;100.00
8061;BME280;4073;42.626;25.386;2022-11-15T10:13:28;97603.22;;;12.27;100.00
8061;BME280;4073;42.626;25.386;2022-11-15T10:16:13;97598.94;;;12.31;100.00
8061;BME280;4073;42.626;25.386;2022-11-15T10:21:45;97586.84;;;12.34;100.00
8061;BME280;4073;42.626;25.386;2022-11-15T10:24:23;97587.66;;;12.34;100.00
8061;BME280;4073;42.626;25.386;2022-11-15T10:26:55;97594.34;;;12.37;100.00
8061;BME280;4073;42.626;25.386;2022-11-15T10:29:22;97589.25;;;12.40;100.00
8061;BME280;4073;42.626;25.386;2022-11-15T10:31:48;97586.00;;;12.43;100.00
8061;BME280;4073;42.626;25.386;2022-11-15T10:34:16;97580.09;;;12.46;100.00
8061;BME280;4073;42.626;25.386;2022-11-15T10:36:57;97570.47;;;12.45;100.00
8061;BME280;4073;42.626;25.386;2022-11-15T10:39:22;97577.16;;;12.48;100.00
8061;BME280;4073;42.626;25.386;2022-11-15T10:41:48;97571.25;;;12.51;100.00
8061;BME280;4073;42.626;25.386;2022-11-15T10:44:18;97568.06;;;12.49;100.00
8061;BME280;4073;42.626;25.386;2022-11-15T10:47:20;97572.31;;;12.50;100.00
8061;BME280;4073;42.626;25.386;2022-11-15T10:50:01;97567.50;;;12.52;100.00
8061;BME280;4073;42.626;25.386;2022-11-15T10:52:28;97561.56;;;12.60;100.00
8061;BME280;4073;42.626;25.386;2022-11-15T10:57:31;97563.13;;;12.71;100.00
8061;BME280;4073;42.626;25.386;2022-11-15T11:00:01;97575.72;;;12.75;100.00
8061;BME280;4073;42.626;25.386;2022-11-15T11:02:38;97565.53;;;12.72;100.00
8061;BME280;4073;42.626;25.386;2022-11-15T11:05:26;97555.88;;;12.66;100.00
8061;BME280;4073;42.626;25.386;2022-11-15T11:07:57;97547.00;;;12.71;100.00
8061;BME280;4073;42.626;25.386;2022-11-15T11:10:23;97553.44;;;12.75;100.00
8061;BME280;4073;42.626;25.386;2022-11-15T11:12:49;97549.69;;;12.76;100.00
8061;BME280;4073;42.626;25.386;2022-11-15T11:15:16;97557.97;;;12.79;100.00
8061;BME280;4073;42.626;25.386;2022-11-15T11:18:07;97546.16;;;12.85;100.00
8061;BME280;4073;42.626;25.386;2022-11-15T11:20:41;97544.28;;;12.86;100.00
8061;BME280;4073;42.626;25.386;2022-11-15T11:26:38;97537.88;;;12.77;100.00
8061;BME280;4073;42.626;25.386;2022-11-15T11:29:35;97539.03;;;12.61;100.00
8061;BME280;4073;42.626;25.386;2022-11-15T11:34:45;97527.47;;;12.65;100.00
8061;BME280;4073;42.626;25.386;2022-11-15T11:47:39;97519.25;;;13.00;99.50
8061;BME280;4073;42.626;25.386;2022-11-15T11:50:18;97501.03;;;12.92;99.97
8061;BME280;4073;42.626;25.386;2022-11-15T11:53:18;97501.84;;;12.88;100.00
8061;BME280;4073;42.626;25.386;2022-11-15T11:55:48;97504.31;;;12.84;100.00
8061;BME280;4073;42.626;25.386;2022-11-15T11:58:27;97502.94;;;12.82;100.00
8061;BME280;4073;42.626;25.386;2022-11-15T12:06:35;97491.50;;;12.71;100.00
8061;BME280;4073;42.626;25.386;2022-11-15T12:09:42;97482.41;;;12.67;100.00
8061;BME280;4073;42.626;25.386;2022-11-15T12:12:15;97470.81;;;12.72;100.00
8061;BME280;4073;42.626;25.386;2022-11-15T12:17:26;97469.16;;;12.81;100.00
8061;BME280;4073;42.626;25.386;2022-11-15T12:19:56;97461.28;;;12.99;100.00
8061;BME280;4073;42.626;25.386;2022-11-15T12:22:28;97454.38;;;13.22;99.01
8061;BME280;4073;42.626;25.386;2022-11-15T12:25:00;97455.81;;;13.43;97.53
8061;BME280;4073;42.626;25.386;2022-11-15T12:27:39;97451.00;;;13.69;96.97
8061;BME280;4073;42.626;25.386;2022-11-15T12:30:18;97442.34;;;13.77;96.12
8061;BME280;4073;42.626;25.386;2022-11-15T12:33:05;97442.16;;;13.92;95.44
8061;BME280;4073;42.626;25.386;2022-11-15T12:35:35;97440.22;;;13.97;94.70
8061;BME280;4073;42.626;25.386;2022-11-15T12:38:03;97443.63;;;14.03;94.77
8061;BME280;4073;42.626;25.386;2022-11-15T12:40:34;97441.13;;;14.11;94.07
8061;BME280;4073;42.626;25.386;2022-11-15T12:43:49;97447.25;;;14.17;94.16
8061;BME280;4073;42.626;25.386;2022-11-15T12:45:49;97434.09;;;14.15;94.36
8061;BME280;4073;42.626;25.386;2022-11-15T12:58:50;97415.69;;;14.27;94.07
8061;BME280;4073;42.626;25.386;2022-11-15T13:07:02;97415.13;;;14.49;92.93
8061;BME280;4073;42.626;25.386;2022-11-15T13:14:51;97408.28;;;14.56;92.85
8061;BME280;4073;42.626;25.386;2022-11-15T13:17:38;97400.38;;;14.46;93.08
8061;BME280;4073;42.626;25.386;2022-11-15T13:22:49;97398.81;;;14.40;93.26
8061;BME280;4073;42.626;25.386;2022-11-15T13:30:40;97394.78;;;14.19;94.14
8061;BME280;4073;42.626;25.386;2022-11-15T13:33:14;97399.56;;;14.04;95.10
8061;BME280;4073;42.626;25.386;2022-11-15T13:35:42;97390.81;;;13.93;95.79
8061;BME280;4073;42.626;25.386;2022-11-15T13:38:27;97382.94;;;13.78;97.36
8061;BME280;4073;42.626;25.386;2022-11-15T13:40:53;97382.97;;;13.73;97.76
8061;BME280;4073;42.626;25.386;2022-11-15T13:48:31;97374.56;;;13.56;99.63
8061;BME280;4073;42.626;25.386;2022-11-15T13:50:59;97377.81;;;13.53;100.00
8061;BME280;4073;42.626;25.386;2022-11-15T13:53:26;97379.28;;;13.46;100.00
8061;BME280;4073;42.626;25.386;2022-11-15T13:55:53;97376.16;;;13.34;100.00
8061;BME280;4073;42.626;25.386;2022-11-15T13:58:21;97370.66;;;13.20;100.00
8061;BME280;4073;42.626;25.386;2022-11-15T14:00:47;97371.50;;;13.16;100.00
8061;BME280;4073;42.626;25.386;2022-11-15T14:03:19;97366.78;;;13.02;100.00
8061;BME280;4073;42.626;25.386;2022-11-15T14:06:08;97363.63;;;12.90;100.00
8061;BME280;4073;42.626;25.386;2022-11-15T14:08:39;97357.50;;;12.85;100.00
8061;BME280;4073;42.626;25.386;2022-11-15T14:11:19;97359.25;;;12.71;100.00
8061;BME280;4073;42.626;25.386;2022-11-15T14:14:12;97356.34;;;12.62;100.00
8061;BME280;4073;42.626;25.386;2022-11-15T14:16:58;97349.69;;;12.60;100.00
8061;BME280;4073;42.626;25.386;2022-11-15T14:24:37;97356.06;;;12.30;100.00
8061;BME280;4073;42.626;25.386;2022-11-15T14:27:20;97352.63;;;12.20;100.00
8061;BME280;4073;42.626;25.386;2022-11-15T14:29:46;97353.22;;;12.12;100.00
8061;BME280;4073;42.626;25.386;2022-11-15T14:34:39;97355.44;;;11.90;100.00
8061;BME280;4073;42.626;25.386;2022-11-15T14:37:18;97345.06;;;11.78;100.00
8061;BME280;4073;42.626;25.386;2022-11-15T14:39:45;97339.47;;;11.75;100.00
8061;BME280;4073;42.626;25.386;2022-11-15T14:42:10;97345.91;;;11.59;100.00
8061;BME280;4073;42.626;25.386;2022-11-15T14:44:36;97342.22;;;11.40;100.00
8061;BME280;4073;42.626;25.386;2022-11-15T14:47:01;97330.72;;;11.34;100.00
8061;BME280;4073;42.626;25.386;2022-11-15T14:49:26;97334.78;;;11.27;100.00
8061;BME280;4073;42.626;25.386;2022-11-15T14:51:52;97330.78;;;11.14;100.00
8061;BME280;4073;42.626;25.386;2022-11-15T14:54:17;97341.22;;;11.06;100.00
8061;BME280;4073;42.626;25.386;2022-11-15T14:56:43;97330.28;;;10.97;100.00
8061;BME280;4073;42.626;25.386;2022-11-15T14:59:08;97335.09;;;10.90;100.00
8061;BME280;4073;42.626;25.386;2022-11-15T15:01:34;97331.38;;;10.81;100.00
8061;BME280;4073;42.626;25.386;2022-11-15T15:03:59;97328.97;;;10.65;100.00
8061;BME280;4073;42.626;25.386;2022-11-15T15:06:25;97328.16;;;10.59;100.00